This is the latest recevied weather packets stored in our database for station/object WA1TYB-13. If no packets are shown the sender has not sent any weather packets the latest 10 day(s).
| Time | Temp. | Humidity | Pressure | Rain* | Wind** | Luminosity | Snow |
|---|---|---|---|---|---|---|---|
| 1777842004 | 22.78° C | 20% | 1012.7 hPa | 0 mm | - | 658 W/m² | - |
| 1777841701 | 22.22° C | 22% | 1013.1 hPa | 0 mm | - | 643 W/m² | - |
| 1777841397 | 22.22° C | 20% | 1013.1 hPa | 0 mm | - | 656 W/m² | - |
| 1777841094 | 22.22° C | 21% | 1013.2 hPa | 0 mm | - | 671 W/m² | - |
| 1777840790 | 22.22° C | 23% | 1013.3 hPa | 0 mm | - | 703 W/m² | - |
| 1777840489 | 22.22° C | 23% | 1013.3 hPa | 0 mm | - | 693 W/m² | - |
| 1777840185 | 22.78° C | 23% | 1013.3 hPa | 0 mm | - | 671 W/m² | - |
| 1777839883 | 22.22° C | 22% | 1013.5 hPa | 0 mm | - | 680 W/m² | - |
| 1777839581 | 21.67° C | 22% | 1013.4 hPa | 0 mm | - | 716 W/m² | - |
| 1777839279 | 22.22° C | 23% | 1013.5 hPa | 0 mm | - | 718 W/m² | - |
| 1777838976 | 21.67° C | 22% | 1013.6 hPa | 0 mm | - | 693 W/m² | - |
| 1777838672 | 21.67° C | 22% | 1013.5 hPa | 0 mm | - | 654 W/m² | - |
| 1777838368 | 21.67° C | 24% | 1013.8 hPa | 0 mm | - | 603 W/m² | - |
| 1777838066 | 21.67° C | 24% | 1013.9 hPa | 0 mm | - | 582 W/m² | - |
| 1777837762 | 21.67° C | 23% | 1013.9 hPa | 0 mm | - | 651 W/m² | - |
| 1777837459 | 22.22° C | 25% | 1014 hPa | 0 mm | - | 679 W/m² | - |
| 1777837155 | 21.67° C | 29% | 1014.1 hPa | 0 mm | - | 643 W/m² | - |
| 1777836850 | 21.11° C | 28% | 1014.3 hPa | 0 mm | - | 647 W/m² | - |
| 1777836546 | 20.56° C | 29% | 1014.2 hPa | 0 mm | - | 685 W/m² | - |
| 1777836242 | 21.11° C | 28% | 1014.2 hPa | 0 mm | - | 677 W/m² | - |
| 1777835938 | 20.56° C | 29% | 1014.5 hPa | 0 mm | - | 652 W/m² | - |
| 1777835636 | 20.56° C | 32% | 1014.7 hPa | 0 mm | - | 638 W/m² | - |
| 1777835332 | 20.56° C | 28% | 1014.4 hPa | 0 mm | - | 655 W/m² | - |
| 1777835030 | 21.11° C | 31% | 1015 hPa | 0 mm | - | 672 W/m² | - |
| 1777834726 | 20.56° C | 27% | 1015 hPa | 0 mm | - | 666 W/m² | - |
* Rain latest hour (hover to see other rain measurements)
** Current wind speed in m/s (hover to see current wind gust speed)